sensor_id;sensor_type;location;lat;lon;timestamp;P1;durP1;ratioP1;P2;durP2;ratioP2
9821;SDS011;4950;46.042;14.472;2022-07-10T00:00:14;4.65;;;1.90;;
9821;SDS011;4950;46.042;14.472;2022-07-10T00:02:42;3.60;;;2.17;;
9821;SDS011;4950;46.042;14.472;2022-07-10T00:05:11;2.28;;;1.77;;
9821;SDS011;4950;46.042;14.472;2022-07-10T00:07:38;2.38;;;2.00;;
9821;SDS011;4950;46.042;14.472;2022-07-10T00:10:05;4.38;;;1.77;;
9821;SDS011;4950;46.042;14.472;2022-07-10T00:12:32;2.38;;;1.95;;
9821;SDS011;4950;46.042;14.472;2022-07-10T00:14:59;2.38;;;1.95;;
9821;SDS011;4950;46.042;14.472;2022-07-10T00:17:26;3.65;;;2.10;;
9821;SDS011;4950;46.042;14.472;2022-07-10T00:19:52;2.85;;;1.63;;
9821;SDS011;4950;46.042;14.472;2022-07-10T00:22:20;3.40;;;2.08;;
9821;SDS011;4950;46.042;14.472;2022-07-10T00:24:47;1.58;;;1.45;;
9821;SDS011;4950;46.042;14.472;2022-07-10T00:27:15;3.00;;;1.80;;
9821;SDS011;4950;46.042;14.472;2022-07-10T00:29:42;3.28;;;1.80;;
9821;SDS011;4950;46.042;14.472;2022-07-10T00:32:08;2.55;;;1.90;;
9821;SDS011;4950;46.042;14.472;2022-07-10T00:34:35;4.15;;;1.70;;
9821;SDS011;4950;46.042;14.472;2022-07-10T00:37:02;3.78;;;1.80;;
9821;SDS011;4950;46.042;14.472;2022-07-10T00:39:31;3.10;;;1.75;;
9821;SDS011;4950;46.042;14.472;2022-07-10T00:42:05;2.72;;;1.80;;
9821;SDS011;4950;46.042;14.472;2022-07-10T00:44:32;3.10;;;1.65;;
9821;SDS011;4950;46.042;14.472;2022-07-10T00:46:59;2.30;;;1.85;;
9821;SDS011;4950;46.042;14.472;2022-07-10T00:49:26;2.88;;;1.60;;
9821;SDS011;4950;46.042;14.472;2022-07-10T00:51:53;3.60;;;2.22;;
9821;SDS011;4950;46.042;14.472;2022-07-10T00:54:20;3.95;;;1.88;;
9821;SDS011;4950;46.042;14.472;2022-07-10T00:56:48;2.25;;;1.60;;
9821;SDS011;4950;46.042;14.472;2022-07-10T00:59:14;2.10;;;1.48;;
9821;SDS011;4950;46.042;14.472;2022-07-10T01:01:41;2.75;;;1.90;;
9821;SDS011;4950;46.042;14.472;2022-07-10T01:04:08;3.95;;;1.98;;
9821;SDS011;4950;46.042;14.472;2022-07-10T01:06:35;3.80;;;1.90;;
9821;SDS011;4950;46.042;14.472;2022-07-10T01:09:02;3.72;;;1.85;;
9821;SDS011;4950;46.042;14.472;2022-07-10T01:11:29;4.70;;;1.90;;
9821;SDS011;4950;46.042;14.472;2022-07-10T01:13:58;2.92;;;1.50;;
9821;SDS011;4950;46.042;14.472;2022-07-10T01:16:26;2.85;;;1.60;;
9821;SDS011;4950;46.042;14.472;2022-07-10T01:18:53;4.20;;;1.98;;
9821;SDS011;4950;46.042;14.472;2022-07-10T01:21:24;2.47;;;2.05;;
9821;SDS011;4950;46.042;14.472;2022-07-10T01:23:51;2.33;;;1.70;;
9821;SDS011;4950;46.042;14.472;2022-07-10T01:26:18;2.75;;;1.60;;
9821;SDS011;4950;46.042;14.472;2022-07-10T01:28:47;3.88;;;1.90;;
9821;SDS011;4950;46.042;14.472;2022-07-10T01:31:15;2.10;;;1.70;;
9821;SDS011;4950;46.042;14.472;2022-07-10T01:33:43;2.50;;;1.73;;
9821;SDS011;4950;46.042;14.472;2022-07-10T01:36:10;2.95;;;1.75;;
9821;SDS011;4950;46.042;14.472;2022-07-10T01:38:38;2.88;;;1.98;;
9821;SDS011;4950;46.042;14.472;2022-07-10T01:41:05;3.40;;;1.70;;
9821;SDS011;4950;46.042;14.472;2022-07-10T01:43:33;2.92;;;1.80;;
9821;SDS011;4950;46.042;14.472;2022-07-10T01:46:00;3.85;;;1.85;;
9821;SDS011;4950;46.042;14.472;2022-07-10T01:48:26;3.00;;;1.83;;
9821;SDS011;4950;46.042;14.472;2022-07-10T01:50:53;3.33;;;1.95;;
9821;SDS011;4950;46.042;14.472;2022-07-10T01:53:19;3.63;;;2.00;;
9821;SDS011;4950;46.042;14.472;2022-07-10T01:55:48;2.30;;;2.10;;
9821;SDS011;4950;46.042;14.472;2022-07-10T01:58:14;2.13;;;1.92;;
9821;SDS011;4950;46.042;14.472;2022-07-10T02:00:41;2.33;;;2.10;;
9821;SDS011;4950;46.042;14.472;2022-07-10T02:03:10;4.45;;;2.25;;
9821;SDS011;4950;46.042;14.472;2022-07-10T02:05:53;3.75;;;2.40;;
9821;SDS011;4950;46.042;14.472;2022-07-10T02:08:20;2.90;;;2.10;;
9821;SDS011;4950;46.042;14.472;2022-07-10T02:10:48;5.13;;;2.30;;
9821;SDS011;4950;46.042;14.472;2022-07-10T02:13:15;4.05;;;2.45;;
9821;SDS011;4950;46.042;14.472;2022-07-10T02:15:45;2.38;;;2.10;;
9821;SDS011;4950;46.042;14.472;2022-07-10T02:18:12;2.80;;;2.30;;
9821;SDS011;4950;46.042;14.472;2022-07-10T02:20:38;2.92;;;2.10;;
9821;SDS011;4950;46.042;14.472;2022-07-10T02:23:05;2.67;;;2.15;;
9821;SDS011;4950;46.042;14.472;2022-07-10T02:25:32;3.42;;;2.38;;
9821;SDS011;4950;46.042;14.472;2022-07-10T02:28:00;3.65;;;2.20;;
9821;SDS011;4950;46.042;14.472;2022-07-10T02:30:26;2.35;;;2.15;;
9821;SDS011;4950;46.042;14.472;2022-07-10T02:32:53;2.38;;;1.92;;
9821;SDS011;4950;46.042;14.472;2022-07-10T02:35:19;3.88;;;2.40;;
9821;SDS011;4950;46.042;14.472;2022-07-10T02:37:46;2.10;;;1.90;;
9821;SDS011;4950;46.042;14.472;2022-07-10T02:40:13;5.15;;;2.00;;
9821;SDS011;4950;46.042;14.472;2022-07-10T02:42:39;4.25;;;2.10;;
9821;SDS011;4950;46.042;14.472;2022-07-10T02:45:08;3.15;;;2.20;;
9821;SDS011;4950;46.042;14.472;2022-07-10T02:47:35;2.50;;;2.08;;
9821;SDS011;4950;46.042;14.472;2022-07-10T02:50:01;3.70;;;2.33;;
9821;SDS011;4950;46.042;14.472;2022-07-10T02:52:29;5.28;;;2.45;;
9821;SDS011;4950;46.042;14.472;2022-07-10T02:54:55;2.28;;;1.95;;
9821;SDS011;4950;46.042;14.472;2022-07-10T02:57:22;4.78;;;2.30;;
9821;SDS011;4950;46.042;14.472;2022-07-10T02:59:49;5.57;;;2.58;;
9821;SDS011;4950;46.042;14.472;2022-07-10T03:02:17;3.15;;;2.53;;
9821;SDS011;4950;46.042;14.472;2022-07-10T03:04:43;3.25;;;2.45;;
9821;SDS011;4950;46.042;14.472;2022-07-10T03:07:10;5.25;;;2.47;;
9821;SDS011;4950;46.042;14.472;2022-07-10T03:09:36;2.97;;;2.40;;
9821;SDS011;4950;46.042;14.472;2022-07-10T03:12:03;4.63;;;2.65;;
9821;SDS011;4950;46.042;14.472;2022-07-10T03:14:31;3.65;;;2.60;;
9821;SDS011;4950;46.042;14.472;2022-07-10T03:16:57;3.80;;;2.08;;
9821;SDS011;4950;46.042;14.472;2022-07-10T03:19:25;3.25;;;1.98;;
9821;SDS011;4950;46.042;14.472;2022-07-10T03:21:52;2.80;;;2.10;;
9821;SDS011;4950;46.042;14.472;2022-07-10T03:24:18;3.78;;;2.08;;
9821;SDS011;4950;46.042;14.472;2022-07-10T03:26:45;3.45;;;1.98;;
9821;SDS011;4950;46.042;14.472;2022-07-10T03:29:11;2.50;;;1.90;;
9821;SDS011;4950;46.042;14.472;2022-07-10T03:31:38;2.47;;;2.10;;
9821;SDS011;4950;46.042;14.472;2022-07-10T03:34:05;2.85;;;1.95;;
9821;SDS011;4950;46.042;14.472;2022-07-10T03:36:33;2.72;;;2.17;;
9821;SDS011;4950;46.042;14.472;2022-07-10T03:38:59;2.20;;;1.83;;
9821;SDS011;4950;46.042;14.472;2022-07-10T03:41:26;3.25;;;2.15;;
9821;SDS011;4950;46.042;14.472;2022-07-10T03:43:52;2.28;;;1.98;;
9821;SDS011;4950;46.042;14.472;2022-07-10T03:46:19;5.25;;;2.45;;
9821;SDS011;4950;46.042;14.472;2022-07-10T03:48:46;2.78;;;2.10;;
9821;SDS011;4950;46.042;14.472;2022-07-10T03:51:12;3.25;;;2.13;;
9821;SDS011;4950;46.042;14.472;2022-07-10T03:53:40;2.70;;;2.08;;
9821;SDS011;4950;46.042;14.472;2022-07-10T03:56:07;5.03;;;2.33;;
9821;SDS011;4950;46.042;14.472;2022-07-10T03:58:34;2.50;;;2.30;;
9821;SDS011;4950;46.042;14.472;2022-07-10T04:00:59;2.08;;;1.80;;
9821;SDS011;4950;46.042;14.472;2022-07-10T04:03:26;2.47;;;2.00;;
9821;SDS011;4950;46.042;14.472;2022-07-10T04:05:52;2.45;;;2.25;;
9821;SDS011;4950;46.042;14.472;2022-07-10T04:08:19;5.65;;;2.35;;
9821;SDS011;4950;46.042;14.472;2022-07-10T04:10:47;3.25;;;2.10;;
9821;SDS011;4950;46.042;14.472;2022-07-10T04:13:14;2.13;;;1.90;;
9821;SDS011;4950;46.042;14.472;2022-07-10T04:15:40;3.28;;;2.30;;
9821;SDS011;4950;46.042;14.472;2022-07-10T04:18:07;2.55;;;2.17;;
9821;SDS011;4950;46.042;14.472;2022-07-10T04:20:34;2.72;;;1.77;;
9821;SDS011;4950;46.042;14.472;2022-07-10T04:23:00;5.93;;;2.28;;
9821;SDS011;4950;46.042;14.472;2022-07-10T04:25:27;2.63;;;2.03;;
9821;SDS011;4950;46.042;14.472;2022-07-10T04:27:55;2.75;;;2.10;;
9821;SDS011;4950;46.042;14.472;2022-07-10T04:30:21;2.38;;;2.10;;
9821;SDS011;4950;46.042;14.472;2022-07-10T04:32:48;2.72;;;2.25;;
9821;SDS011;4950;46.042;14.472;2022-07-10T04:35:15;3.20;;;2.08;;
9821;SDS011;4950;46.042;14.472;2022-07-10T04:37:42;5.28;;;2.50;;
9821;SDS011;4950;46.042;14.472;2022-07-10T04:40:09;2.47;;;2.28;;
9821;SDS011;4950;46.042;14.472;2022-07-10T04:42:36;2.60;;;2.20;;
9821;SDS011;4950;46.042;14.472;2022-07-10T04:45:05;2.55;;;2.35;;
9821;SDS011;4950;46.042;14.472;2022-07-10T04:47:32;3.38;;;2.28;;
9821;SDS011;4950;46.042;14.472;2022-07-10T04:49:58;2.85;;;2.40;;
9821;SDS011;4950;46.042;14.472;2022-07-10T04:52:25;3.05;;;2.05;;
9821;SDS011;4950;46.042;14.472;2022-07-10T04:54:52;3.40;;;2.35;;
9821;SDS011;4950;46.042;14.472;2022-07-10T04:57:18;3.67;;;2.53;;
9821;SDS011;4950;46.042;14.472;2022-07-10T04:59:45;3.13;;;2.58;;
9821;SDS011;4950;46.042;14.472;2022-07-10T05:02:13;2.90;;;2.38;;
9821;SDS011;4950;46.042;14.472;2022-07-10T05:04:39;3.40;;;2.67;;
9821;SDS011;4950;46.042;14.472;2022-07-10T05:07:06;4.30;;;2.40;;
9821;SDS011;4950;46.042;14.472;2022-07-10T05:09:33;5.25;;;2.50;;
9821;SDS011;4950;46.042;14.472;2022-07-10T05:11:59;2.88;;;2.17;;
9821;SDS011;4950;46.042;14.472;2022-07-10T05:14:26;2.50;;;2.20;;
9821;SDS011;4950;46.042;14.472;2022-07-10T05:16:53;2.70;;;2.38;;
9821;SDS011;4950;46.042;14.472;2022-07-10T05:19:21;4.90;;;2.65;;
9821;SDS011;4950;46.042;14.472;2022-07-10T05:21:47;2.28;;;2.08;;
9821;SDS011;4950;46.042;14.472;2022-07-10T05:24:14;4.85;;;2.33;;
9821;SDS011;4950;46.042;14.472;2022-07-10T05:26:41;3.83;;;2.50;;
9821;SDS011;4950;46.042;14.472;2022-07-10T05:29:07;2.92;;;2.55;;
9821;SDS011;4950;46.042;14.472;2022-07-10T05:31:34;3.72;;;2.67;;
9821;SDS011;4950;46.042;14.472;2022-07-10T05:34:01;2.83;;;2.25;;
9821;SDS011;4950;46.042;14.472;2022-07-10T05:36:29;4.57;;;2.80;;
9821;SDS011;4950;46.042;14.472;2022-07-10T05:38:55;4.47;;;2.33;;
9821;SDS011;4950;46.042;14.472;2022-07-10T05:41:22;2.40;;;2.20;;
9821;SDS011;4950;46.042;14.472;2022-07-10T05:43:49;4.15;;;2.30;;
9821;SDS011;4950;46.042;14.472;2022-07-10T05:46:15;3.42;;;2.55;;
9821;SDS011;4950;46.042;14.472;2022-07-10T05:48:42;2.60;;;2.10;;
9821;SDS011;4950;46.042;14.472;2022-07-10T05:51:08;3.50;;;2.40;;
9821;SDS011;4950;46.042;14.472;2022-07-10T05:53:37;4.28;;;2.63;;
9821;SDS011;4950;46.042;14.472;2022-07-10T05:56:04;2.50;;;2.30;;
9821;SDS011;4950;46.042;14.472;2022-07-10T05:58:31;2.80;;;2.30;;
9821;SDS011;4950;46.042;14.472;2022-07-10T06:00:57;2.97;;;2.28;;
9821;SDS011;4950;46.042;14.472;2022-07-10T06:03:24;3.13;;;2.50;;
9821;SDS011;4950;46.042;14.472;2022-07-10T06:05:51;3.67;;;2.45;;
9821;SDS011;4950;46.042;14.472;2022-07-10T06:08:18;4.50;;;2.50;;
9821;SDS011;4950;46.042;14.472;2022-07-10T06:10:46;2.70;;;2.38;;
9821;SDS011;4950;46.042;14.472;2022-07-10T06:13:12;4.38;;;2.45;;
9821;SDS011;4950;46.042;14.472;2022-07-10T06:15:39;3.13;;;2.70;;
9821;SDS011;4950;46.042;14.472;2022-07-10T06:18:06;2.88;;;2.30;;
9821;SDS011;4950;46.042;14.472;2022-07-10T06:20:32;3.85;;;2.80;;
9821;SDS011;4950;46.042;14.472;2022-07-10T06:22:59;3.00;;;2.53;;
9821;SDS011;4950;46.042;14.472;2022-07-10T06:25:26;2.88;;;2.38;;
9821;SDS011;4950;46.042;14.472;2022-07-10T06:27:54;4.50;;;2.60;;
9821;SDS011;4950;46.042;14.472;2022-07-10T06:30:20;2.67;;;2.40;;
9821;SDS011;4950;46.042;14.472;2022-07-10T06:32:47;2.83;;;2.50;;
9821;SDS011;4950;46.042;14.472;2022-07-10T06:35:13;4.88;;;2.50;;
9821;SDS011;4950;46.042;14.472;2022-07-10T06:37:40;5.63;;;2.70;;
9821;SDS011;4950;46.042;14.472;2022-07-10T06:40:07;3.22;;;2.30;;
9821;SDS011;4950;46.042;14.472;2022-07-10T06:42:38;4.35;;;2.97;;
9821;SDS011;4950;46.042;14.472;2022-07-10T06:45:06;3.15;;;2.50;;
9821;SDS011;4950;46.042;14.472;2022-07-10T06:47:33;3.90;;;2.83;;
9821;SDS011;4950;46.042;14.472;2022-07-10T06:50:17;3.83;;;2.30;;
9821;SDS011;4950;46.042;14.472;2022-07-10T06:52:44;2.38;;;2.20;;
9821;SDS011;4950;46.042;14.472;2022-07-10T06:55:11;4.60;;;2.75;;
9821;SDS011;4950;46.042;14.472;2022-07-10T06:57:38;4.00;;;2.63;;
9821;SDS011;4950;46.042;14.472;2022-07-10T07:00:07;4.43;;;2.67;;
9821;SDS011;4950;46.042;14.472;2022-07-10T07:02:35;4.22;;;2.30;;
9821;SDS011;4950;46.042;14.472;2022-07-10T07:05:02;3.65;;;2.38;;
9821;SDS011;4950;46.042;14.472;2022-07-10T07:07:29;3.60;;;2.38;;
9821;SDS011;4950;46.042;14.472;2022-07-10T07:09:56;2.50;;;2.00;;
9821;SDS011;4950;46.042;14.472;2022-07-10T07:12:22;4.57;;;2.80;;
9821;SDS011;4950;46.042;14.472;2022-07-10T07:14:49;5.13;;;2.45;;
9821;SDS011;4950;46.042;14.472;2022-07-10T07:17:17;2.75;;;2.20;;
9821;SDS011;4950;46.042;14.472;2022-07-10T07:19:48;2.33;;;2.05;;
9821;SDS011;4950;46.042;14.472;2022-07-10T07:22:41;3.38;;;2.03;;
9821;SDS011;4950;46.042;14.472;2022-07-10T07:25:21;2.65;;;2.10;;
9821;SDS011;4950;46.042;14.472;2022-07-10T07:27:48;3.13;;;2.10;;
9821;SDS011;4950;46.042;14.472;2022-07-10T07:30:15;2.40;;;1.85;;
9821;SDS011;4950;46.042;14.472;2022-07-10T07:32:43;2.80;;;1.88;;
9821;SDS011;4950;46.042;14.472;2022-07-10T07:35:13;2.70;;;1.83;;
9821;SDS011;4950;46.042;14.472;2022-07-10T07:37:41;2.55;;;1.90;;
9821;SDS011;4950;46.042;14.472;2022-07-10T07:40:09;2.50;;;2.05;;
9821;SDS011;4950;46.042;14.472;2022-07-10T07:42:37;4.43;;;2.10;;
9821;SDS011;4950;46.042;14.472;2022-07-10T07:45:05;2.95;;;2.13;;
9821;SDS011;4950;46.042;14.472;2022-07-10T07:47:42;3.65;;;2.10;;
9821;SDS011;4950;46.042;14.472;2022-07-10T07:50:11;2.13;;;1.92;;
9821;SDS011;4950;46.042;14.472;2022-07-10T07:52:38;3.42;;;1.98;;
9821;SDS011;4950;46.042;14.472;2022-07-10T07:55:05;3.00;;;2.03;;
9821;SDS011;4950;46.042;14.472;2022-07-10T07:57:32;2.45;;;2.15;;
9821;SDS011;4950;46.042;14.472;2022-07-10T07:59:59;4.55;;;2.05;;
9821;SDS011;4950;46.042;14.472;2022-07-10T08:02:25;2.20;;;1.90;;
9821;SDS011;4950;46.042;14.472;2022-07-10T08:04:53;5.05;;;2.15;;
9821;SDS011;4950;46.042;14.472;2022-07-10T08:07:20;2.65;;;2.17;;
9821;SDS011;4950;46.042;14.472;2022-07-10T08:09:46;4.05;;;2.25;;
9821;SDS011;4950;46.042;14.472;2022-07-10T08:12:14;2.38;;;1.75;;
9821;SDS011;4950;46.042;14.472;2022-07-10T08:14:41;4.45;;;1.80;;
9821;SDS011;4950;46.042;14.472;2022-07-10T08:17:07;2.10;;;1.90;;
9821;SDS011;4950;46.042;14.472;2022-07-10T08:19:34;2.67;;;1.80;;
9821;SDS011;4950;46.042;14.472;2022-07-10T08:22:02;2.88;;;1.90;;
9821;SDS011;4950;46.042;14.472;2022-07-10T08:24:29;3.35;;;2.08;;
9821;SDS011;4950;46.042;14.472;2022-07-10T08:26:56;2.20;;;1.80;;
9821;SDS011;4950;46.042;14.472;2022-07-10T08:29:23;2.28;;;1.92;;
9821;SDS011;4950;46.042;14.472;2022-07-10T08:31:50;2.10;;;1.70;;
9821;SDS011;4950;46.042;14.472;2022-07-10T08:34:16;3.50;;;1.70;;
9821;SDS011;4950;46.042;14.472;2022-07-10T08:36:43;2.50;;;1.95;;
9821;SDS011;4950;46.042;14.472;2022-07-10T08:39:11;2.90;;;1.90;;
9821;SDS011;4950;46.042;14.472;2022-07-10T08:41:37;2.08;;;1.80;;
9821;SDS011;4950;46.042;14.472;2022-07-10T08:44:04;2.75;;;1.80;;
9821;SDS011;4950;46.042;14.472;2022-07-10T08:46:31;2.42;;;2.10;;
9821;SDS011;4950;46.042;14.472;2022-07-10T08:48:58;2.60;;;2.05;;
9821;SDS011;4950;46.042;14.472;2022-07-10T08:51:30;1.98;;;1.77;;
9821;SDS011;4950;46.042;14.472;2022-07-10T08:54:03;3.88;;;1.67;;
9821;SDS011;4950;46.042;14.472;2022-07-10T08:56:31;3.90;;;1.83;;
9821;SDS011;4950;46.042;14.472;2022-07-10T08:58:59;2.15;;;1.83;;
9821;SDS011;4950;46.042;14.472;2022-07-10T09:01:28;2.78;;;1.85;;
9821;SDS011;4950;46.042;14.472;2022-07-10T09:03:55;2.25;;;2.05;;
9821;SDS011;4950;46.042;14.472;2022-07-10T09:06:21;2.65;;;2.10;;
9821;SDS011;4950;46.042;14.472;2022-07-10T09:08:57;3.25;;;1.83;;
9821;SDS011;4950;46.042;14.472;2022-07-10T09:11:25;2.38;;;1.60;;
9821;SDS011;4950;46.042;14.472;2022-07-10T09:13:56;2.92;;;2.15;;
9821;SDS011;4950;46.042;14.472;2022-07-10T09:16:23;4.63;;;2.00;;
9821;SDS011;4950;46.042;14.472;2022-07-10T09:18:51;3.72;;;2.20;;
9821;SDS011;4950;46.042;14.472;2022-07-10T09:21:18;3.67;;;2.22;;
9821;SDS011;4950;46.042;14.472;2022-07-10T09:23:44;5.18;;;2.42;;
9821;SDS011;4950;46.042;14.472;2022-07-10T09:26:11;3.35;;;2.10;;
9821;SDS011;4950;46.042;14.472;2022-07-10T09:28:38;3.15;;;2.00;;
9821;SDS011;4950;46.042;14.472;2022-07-10T09:31:06;2.88;;;2.03;;
9821;SDS011;4950;46.042;14.472;2022-07-10T09:33:32;2.28;;;1.80;;
9821;SDS011;4950;46.042;14.472;2022-07-10T09:36:01;4.25;;;2.38;;
9821;SDS011;4950;46.042;14.472;2022-07-10T09:38:51;2.42;;;1.80;;
9821;SDS011;4950;46.042;14.472;2022-07-10T09:41:25;2.60;;;2.10;;
9821;SDS011;4950;46.042;14.472;2022-07-10T09:43:54;2.33;;;1.88;;
9821;SDS011;4950;46.042;14.472;2022-07-10T09:46:24;3.85;;;2.13;;
9821;SDS011;4950;46.042;14.472;2022-07-10T09:49:02;2.63;;;1.88;;
9821;SDS011;4950;46.042;14.472;2022-07-10T09:51:30;4.10;;;2.05;;
9821;SDS011;4950;46.042;14.472;2022-07-10T09:53:59;3.65;;;2.25;;
9821;SDS011;4950;46.042;14.472;2022-07-10T09:56:28;4.38;;;2.30;;
9821;SDS011;4950;46.042;14.472;2022-07-10T09:58:59;3.15;;;2.30;;
9821;SDS011;4950;46.042;14.472;2022-07-10T10:01:28;2.78;;;2.47;;
9821;SDS011;4950;46.042;14.472;2022-07-10T10:03:56;2.13;;;1.92;;
9821;SDS011;4950;46.042;14.472;2022-07-10T10:06:25;2.35;;;2.15;;
9821;SDS011;4950;46.042;14.472;2022-07-10T10:08:54;3.20;;;2.75;;
9821;SDS011;4950;46.042;14.472;2022-07-10T10:11:25;4.10;;;2.85;;
9821;SDS011;4950;46.042;14.472;2022-07-10T10:13:53;5.50;;;3.08;;
9821;SDS011;4950;46.042;14.472;2022-07-10T10:16:20;3.72;;;2.97;;
9821;SDS011;4950;46.042;14.472;2022-07-10T10:18:48;3.75;;;2.58;;
9821;SDS011;4950;46.042;14.472;2022-07-10T10:21:34;2.40;;;2.13;;
9821;SDS011;4950;46.042;14.472;2022-07-10T10:24:02;3.53;;;2.30;;
9821;SDS011;4950;46.042;14.472;2022-07-10T10:26:29;2.97;;;2.53;;
9821;SDS011;4950;46.042;14.472;2022-07-10T10:28:56;2.95;;;2.00;;
9821;SDS011;4950;46.042;14.472;2022-07-10T10:31:25;2.75;;;2.22;;
9821;SDS011;4950;46.042;14.472;2022-07-10T10:33:55;3.17;;;2.00;;
9821;SDS011;4950;46.042;14.472;2022-07-10T10:39:12;2.72;;;2.22;;
9821;SDS011;4950;46.042;14.472;2022-07-10T10:41:47;5.32;;;2.70;;
9821;SDS011;4950;46.042;14.472;2022-07-10T10:44:27;4.70;;;2.63;;
9821;SDS011;4950;46.042;14.472;2022-07-10T10:47:00;4.10;;;2.60;;
9821;SDS011;4950;46.042;14.472;2022-07-10T10:49:48;4.22;;;2.50;;
9821;SDS011;4950;46.042;14.472;2022-07-10T10:52:16;3.00;;;2.45;;
9821;SDS011;4950;46.042;14.472;2022-07-10T10:54:59;3.40;;;2.90;;
9821;SDS011;4950;46.042;14.472;2022-07-10T11:03:11;2.92;;;2.60;;
9821;SDS011;4950;46.042;14.472;2022-07-10T11:05:44;2.63;;;2.20;;
9821;SDS011;4950;46.042;14.472;2022-07-10T11:08:12;3.22;;;2.08;;
9821;SDS011;4950;46.042;14.472;2022-07-10T11:10:40;3.58;;;1.90;;
9821;SDS011;4950;46.042;14.472;2022-07-10T11:13:08;2.58;;;2.05;;
9821;SDS011;4950;46.042;14.472;2022-07-10T11:15:36;2.70;;;1.77;;
9821;SDS011;4950;46.042;14.472;2022-07-10T11:18:04;2.03;;;1.77;;
9821;SDS011;4950;46.042;14.472;2022-07-10T11:20:33;2.78;;;1.80;;
9821;SDS011;4950;46.042;14.472;2022-07-10T11:23:06;4.43;;;2.42;;
9821;SDS011;4950;46.042;14.472;2022-07-10T11:25:45;4.68;;;2.95;;
9821;SDS011;4950;46.042;14.472;2022-07-10T11:28:26;2.92;;;2.30;;
9821;SDS011;4950;46.042;14.472;2022-07-10T11:31:03;3.75;;;2.10;;
9821;SDS011;4950;46.042;14.472;2022-07-10T11:33:30;1.85;;;1.65;;
9821;SDS011;4950;46.042;14.472;2022-07-10T11:36:09;2.17;;;1.90;;
9821;SDS011;4950;46.042;14.472;2022-07-10T11:38:40;3.00;;;1.98;;
9821;SDS011;4950;46.042;14.472;2022-07-10T11:41:14;3.33;;;1.80;;
9821;SDS011;4950;46.042;14.472;2022-07-10T11:43:45;3.65;;;2.00;;
9821;SDS011;4950;46.042;14.472;2022-07-10T11:46:13;3.03;;;1.70;;
9821;SDS011;4950;46.042;14.472;2022-07-10T11:48:40;2.92;;;1.60;;
9821;SDS011;4950;46.042;14.472;2022-07-10T11:51:15;3.60;;;2.00;;
9821;SDS011;4950;46.042;14.472;2022-07-10T11:53:59;2.97;;;1.90;;
9821;SDS011;4950;46.042;14.472;2022-07-10T11:56:27;2.85;;;1.98;;
9821;SDS011;4950;46.042;14.472;2022-07-10T11:58:55;3.00;;;2.08;;
9821;SDS011;4950;46.042;14.472;2022-07-10T12:01:23;2.10;;;1.80;;
9821;SDS011;4950;46.042;14.472;2022-07-10T12:03:53;3.22;;;1.98;;
9821;SDS011;4950;46.042;14.472;2022-07-10T12:06:21;2.47;;;1.90;;
9821;SDS011;4950;46.042;14.472;2022-07-10T12:08:49;3.15;;;1.90;;
9821;SDS011;4950;46.042;14.472;2022-07-10T12:11:18;3.15;;;1.70;;
9821;SDS011;4950;46.042;14.472;2022-07-10T12:13:46;2.10;;;1.90;;
9821;SDS011;4950;46.042;14.472;2022-07-10T12:16:13;3.33;;;1.65;;
9821;SDS011;4950;46.042;14.472;2022-07-10T12:18:40;3.08;;;1.95;;
9821;SDS011;4950;46.042;14.472;2022-07-10T12:21:08;2.20;;;2.00;;
9821;SDS011;4950;46.042;14.472;2022-07-10T12:23:35;2.78;;;1.88;;
9821;SDS011;4950;46.042;14.472;2022-07-10T12:26:07;2.10;;;1.60;;
9821;SDS011;4950;46.042;14.472;2022-07-10T12:28:49;2.58;;;1.90;;
9821;SDS011;4950;46.042;14.472;2022-07-10T12:31:19;2.20;;;1.70;;
9821;SDS011;4950;46.042;14.472;2022-07-10T12:33:50;2.28;;;1.75;;
9821;SDS011;4950;46.042;14.472;2022-07-10T12:36:17;2.00;;;1.80;;
9821;SDS011;4950;46.042;14.472;2022-07-10T12:38:52;2.78;;;1.80;;
9821;SDS011;4950;46.042;14.472;2022-07-10T12:41:19;1.90;;;1.70;;
9821;SDS011;4950;46.042;14.472;2022-07-10T12:43:50;2.08;;;1.60;;
9821;SDS011;4950;46.042;14.472;2022-07-10T12:46:18;2.42;;;1.70;;
9821;SDS011;4950;46.042;14.472;2022-07-10T12:49:02;2.10;;;1.70;;
9821;SDS011;4950;46.042;14.472;2022-07-10T12:51:33;1.88;;;1.58;;
9821;SDS011;4950;46.042;14.472;2022-07-10T12:54:00;2.05;;;1.60;;
9821;SDS011;4950;46.042;14.472;2022-07-10T12:56:31;2.40;;;1.65;;
9821;SDS011;4950;46.042;14.472;2022-07-10T12:59:01;2.63;;;1.70;;
9821;SDS011;4950;46.042;14.472;2022-07-10T13:01:29;2.35;;;1.60;;
9821;SDS011;4950;46.042;14.472;2022-07-10T13:04:06;2.08;;;1.50;;
9821;SDS011;4950;46.042;14.472;2022-07-10T13:06:34;3.20;;;1.92;;
9821;SDS011;4950;46.042;14.472;2022-07-10T13:09:01;2.65;;;1.83;;
9821;SDS011;4950;46.042;14.472;2022-07-10T13:11:28;3.03;;;1.40;;
9821;SDS011;4950;46.042;14.472;2022-07-10T13:13:55;2.38;;;1.63;;
9821;SDS011;4950;46.042;14.472;2022-07-10T13:16:23;2.65;;;1.40;;
9821;SDS011;4950;46.042;14.472;2022-07-10T13:18:49;1.52;;;1.40;;
9821;SDS011;4950;46.042;14.472;2022-07-10T13:21:16;1.80;;;1.40;;
9821;SDS011;4950;46.042;14.472;2022-07-10T13:23:43;1.92;;;1.30;;
9821;SDS011;4950;46.042;14.472;2022-07-10T13:26:09;1.98;;;1.77;;
9821;SDS011;4950;46.042;14.472;2022-07-10T13:28:36;3.38;;;1.67;;
9821;SDS011;4950;46.042;14.472;2022-07-10T13:31:02;3.53;;;1.80;;
9821;SDS011;4950;46.042;14.472;2022-07-10T13:33:31;1.60;;;1.42;;
9821;SDS011;4950;46.042;14.472;2022-07-10T13:35:59;2.33;;;1.83;;
9821;SDS011;4950;46.042;14.472;2022-07-10T13:38:26;2.30;;;1.63;;
9821;SDS011;4950;46.042;14.472;2022-07-10T13:40:53;4.30;;;1.58;;
9821;SDS011;4950;46.042;14.472;2022-07-10T13:43:20;1.85;;;1.40;;
9821;SDS011;4950;46.042;14.472;2022-07-10T13:45:52;3.30;;;1.50;;
9821;SDS011;4950;46.042;14.472;2022-07-10T13:48:19;1.50;;;1.33;;
9821;SDS011;4950;46.042;14.472;2022-07-10T13:50:47;1.65;;;1.40;;
9821;SDS011;4950;46.042;14.472;2022-07-10T13:53:14;1.90;;;1.35;;
9821;SDS011;4950;46.042;14.472;2022-07-10T13:55:41;2.53;;;1.33;;
9821;SDS011;4950;46.042;14.472;2022-07-10T13:58:08;1.52;;;1.20;;
9821;SDS011;4950;46.042;14.472;2022-07-10T14:00:35;1.58;;;1.42;;
9821;SDS011;4950;46.042;14.472;2022-07-10T14:03:02;1.80;;;1.38;;
9821;SDS011;4950;46.042;14.472;2022-07-10T14:05:29;1.55;;;1.00;;
9821;SDS011;4950;46.042;14.472;2022-07-10T14:07:59;2.72;;;1.42;;
9821;SDS011;4950;46.042;14.472;2022-07-10T14:10:25;1.75;;;1.50;;
9821;SDS011;4950;46.042;14.472;2022-07-10T14:12:53;4.40;;;1.45;;
9821;SDS011;4950;46.042;14.472;2022-07-10T14:15:20;1.98;;;1.40;;
9821;SDS011;4950;46.042;14.472;2022-07-10T14:17:47;2.05;;;1.60;;
9821;SDS011;4950;46.042;14.472;2022-07-10T14:20:15;3.35;;;1.63;;
9821;SDS011;4950;46.042;14.472;2022-07-10T14:22:42;1.85;;;1.30;;
9821;SDS011;4950;46.042;14.472;2022-07-10T14:25:12;3.10;;;1.55;;
9821;SDS011;4950;46.042;14.472;2022-07-10T14:27:39;1.80;;;1.40;;
9821;SDS011;4950;46.042;14.472;2022-07-10T14:30:06;2.55;;;1.63;;
9821;SDS011;4950;46.042;14.472;2022-07-10T14:32:34;1.88;;;1.67;;
9821;SDS011;4950;46.042;14.472;2022-07-10T14:35:01;3.10;;;1.80;;
9821;SDS011;4950;46.042;14.472;2022-07-10T14:37:27;3.85;;;1.80;;
9821;SDS011;4950;46.042;14.472;2022-07-10T14:39:54;2.20;;;1.75;;
9821;SDS011;4950;46.042;14.472;2022-07-10T14:42:22;4.45;;;2.00;;
9821;SDS011;4950;46.042;14.472;2022-07-10T14:44:49;2.10;;;1.75;;
9821;SDS011;4950;46.042;14.472;2022-07-10T14:47:15;2.58;;;1.88;;
9821;SDS011;4950;46.042;14.472;2022-07-10T14:49:42;3.03;;;1.70;;
9821;SDS011;4950;46.042;14.472;2022-07-10T14:52:08;2.08;;;1.70;;
9821;SDS011;4950;46.042;14.472;2022-07-10T14:54:35;7.57;;;2.20;;
9821;SDS011;4950;46.042;14.472;2022-07-10T14:57:02;3.67;;;2.10;;
9821;SDS011;4950;46.042;14.472;2022-07-10T14:59:30;4.25;;;1.90;;
9821;SDS011;4950;46.042;14.472;2022-07-10T15:01:57;4.22;;;2.08;;
9821;SDS011;4950;46.042;14.472;2022-07-10T15:04:24;2.92;;;2.50;;
9821;SDS011;4950;46.042;14.472;2022-07-10T15:06:50;4.15;;;2.42;;
9821;SDS011;4950;46.042;14.472;2022-07-10T15:09:17;2.85;;;2.30;;
9821;SDS011;4950;46.042;14.472;2022-07-10T15:11:44;3.45;;;2.08;;
9821;SDS011;4950;46.042;14.472;2022-07-10T15:14:10;3.47;;;2.05;;